Airfield :
LOGIN :

Register | Disclaimer

   EN    FR    IT 

 










Legend :    VFR   Marginal VFR   IFR   Intensive IFR   Very Intensive IFR
Visi :
Ceiling :
>= 8 km
>= 3000ft
5 to 8 km
1000 to 3000 ft
1500m to 5 km
500 to 1000 ft
800 to 1500m
200 to 500 ft
< 800m
< 200 ft
Symbols :   Thunderstorms  Fog  Heavy snow  Heavy precipitations  Wind > 20 kt
SIGMETs :     Misc.  Thunderstorms  Icing  Turbulence  Mountain Waves  Volcanic Ashes






- Airport Elevation : 3 ft
- IATA code : DHR


EHKD - Den Helder De Kooy

CURRENT METAR :
  • 201325Z AUTO 19012KT 160V220 9999 FEW084/// SCT091/// OVC150/// 13/10 Q1005 BLU NOSIG

EXPIRED METARs :
  • 201255Z AUTO 19012KT 160V220 9999 OVC073/// 13/09 Q1005 BLU NOSIG
  • 201225Z AUTO 19011KT 170V230 9999 SCT066 OVC150 13/09 Q1005 BLU NOSIG
  • 201155Z AUTO 18013KT 150V210 9999 BKN076 OVC081 12/09 Q1005 BLU NOSIG
  • 201125Z AUTO 17011KT 140V200 9999 SCT059 BKN064 BKN071 11/08 Q1005 BLU NOSIG
  • 201055Z AUTO 18011KT 150V210 9999 FEW015CB BKN064 OVC071 11/08 Q1005 BLU NOSIG

TAF TAF EHKD
Valid from the 20 at 13:00 until the 21 at 01:00 UTC


201250Z 2013/2101 20012KT CAVOK
TEMPO 2013/2021 21015G25KT



MET'MAP, your aeronautical weather chart ! - Copyright ORBIFLY December 2007 - Disclaimer

ORBIFLY MET'MAP TEAM :

Programming & Development : Alexandra Zaïnal
Concept & original design : Baudouin d'Aumeries
Assistance for programming : Marc-Olivier Méhu
Technical & hardware support : Manuel Goepfert

Contact : metmap@orbifly.com




SOURCES & CREDITS :

   NOAA